Aviation Digital Data Service (ADDS)

Output produced by METARs form (0651 UTC 22 July 2017)
found at http://aviationweather.gov/adds/metars/
 
KBPT 220520Z 2206/2306 VRB04KT P6SM SCT100 
     FM221500 21007KT P6SM VCTS BKN050CB 
     FM230200 VRB05KT P6SM BKN250